Muirkirk, United Kingdom
Current Conditions -  °F | °C
As of 9:20 PM on Saturday 22 Nov 2014 (Local Time) from EGPK Reporting Station
Few Clouds Few Clouds  
Wind Chill: 45°   Ceiling: Unl
Heat Index: 48°   Visibility: 6mi
Dew Point: 45°   Wind: 7mph
Humidity: 87%   Direction: 240°WSW
Pressure: 29.91"   Gusts: NA
Location:  55.52°N, 4.07°W
Report Text: EGPK 222120Z 24006KT 9999 FEW040 09/07 Q1013
Loading
Personal Weather Stations






























Interactive Weather Map New forecast layout! Learn more

10-Day Weather Forecast

Advertisements
Track Severe Weather on mobile